createdAt,value
2023-01-19T00:04:05.611Z,1.50
2023-01-19T00:09:59.601Z,1.50
2023-01-19T00:15:54.351Z,1.60
2023-01-19T00:21:47.690Z,1.70
2023-01-19T00:27:41.133Z,1.70
2023-01-19T00:33:35.958Z,1.70
2023-01-19T00:39:29.334Z,1.70
2023-01-19T00:45:24.686Z,1.70
2023-01-19T00:51:19.466Z,1.70
2023-01-19T00:57:13.003Z,1.80
2023-01-19T01:03:06.600Z,1.80
2023-01-19T01:09:12.192Z,1.80
2023-01-19T01:15:06.382Z,1.80
2023-01-19T01:21:02.993Z,1.90
2023-01-19T01:26:57.674Z,1.90
2023-01-19T01:32:51.074Z,2.00
2023-01-19T01:38:44.465Z,1.90
2023-01-19T01:44:52.540Z,2.00
2023-01-19T01:51:03.109Z,2.10
2023-01-19T01:57:00.652Z,2.10
2023-01-19T02:02:56.283Z,2.10
2023-01-19T02:09:12.569Z,2.20
2023-01-19T02:15:06.991Z,2.10
2023-01-19T02:21:09.859Z,2.00
2023-01-19T02:27:06.218Z,2.10
2023-01-19T02:33:00.262Z,2.10
2023-01-19T02:38:56.481Z,2.10
2023-01-19T02:44:53.113Z,2.20
2023-01-19T02:50:50.227Z,2.20
2023-01-19T05:34:03.926Z,2.60
2023-01-19T05:39:59.080Z,2.50
2023-01-19T05:45:52.511Z,2.50
2023-01-19T05:51:46.767Z,2.50
2023-01-19T05:57:41.571Z,2.50
2023-01-19T06:03:35.972Z,2.50
2023-01-19T06:09:29.032Z,2.50
2023-01-19T06:15:24.041Z,2.50
2023-01-19T06:21:17.517Z,2.50
2023-01-19T06:27:11.650Z,2.50
2023-01-19T06:33:06.439Z,2.50
2023-01-19T06:39:03.171Z,2.50
2023-01-19T06:44:56.132Z,2.40
2023-01-19T06:50:51.281Z,2.40
2023-01-19T06:56:44.707Z,2.40
2023-01-19T07:02:37.961Z,2.40
2023-01-19T07:08:32.454Z,2.40
2023-01-19T07:14:26.121Z,2.40
2023-01-19T07:20:20.057Z,2.40
2023-01-19T07:26:15.291Z,2.40
2023-01-19T07:32:09.057Z,2.40
2023-01-19T07:38:02.627Z,2.40
2023-01-19T07:43:57.557Z,2.40
2023-01-19T07:49:50.988Z,2.40
2023-01-19T07:55:44.535Z,2.40
2023-01-19T08:01:39.218Z,2.40
2023-01-19T08:07:33.726Z,2.50
2023-01-19T08:13:27.548Z,2.50
2023-01-19T08:19:22.351Z,2.50
2023-01-19T08:25:15.989Z,2.50
2023-01-19T08:31:19.642Z,2.50
2023-01-19T08:37:16.521Z,2.40
2023-01-19T08:43:12.824Z,2.40
2023-01-19T08:49:06.186Z,2.50
2023-01-19T08:55:01.177Z,2.50
2023-01-19T09:00:55.089Z,2.50
2023-01-19T09:06:48.719Z,2.50
2023-01-19T09:12:43.398Z,2.60
2023-01-19T09:18:37.088Z,2.60
2023-01-19T09:24:30.559Z,2.70
2023-01-19T09:30:25.104Z,2.70
2023-01-19T09:36:18.065Z,2.70
2023-01-19T09:42:24.080Z,2.70
2023-01-19T09:48:30.051Z,2.60
2023-01-19T09:54:30.351Z,2.70
2023-01-19T10:00:25.647Z,2.70
2023-01-19T10:06:20.195Z,2.70
2023-01-19T10:12:22.207Z,2.70
2023-01-19T10:18:20.278Z,2.70
2023-01-19T10:24:22.364Z,2.70
2023-01-19T10:30:23.755Z,2.70
2023-01-19T10:36:20.041Z,2.70
2023-01-19T10:42:17.732Z,2.80
2023-01-19T10:48:14.170Z,2.80
2023-01-19T10:54:14.370Z,2.80
2023-01-19T11:00:31.016Z,2.90
2023-01-19T11:06:27.693Z,2.90
2023-01-19T11:12:23.144Z,2.90
2023-01-19T11:18:28.679Z,2.80
2023-01-19T11:24:22.068Z,2.90
2023-01-19T11:30:20.835Z,2.90
2023-01-19T11:36:21.530Z,3.00
2023-01-19T11:42:16.038Z,3.00
2023-01-19T11:48:18.508Z,3.00
2023-01-19T11:54:24.069Z,3.00
2023-01-19T12:00:25.549Z,3.00
2023-01-19T12:06:21.885Z,2.90
2023-01-19T12:12:30.795Z,3.00
2023-01-19T12:18:29.632Z,3.00
2023-01-19T12:24:29.718Z,3.10
2023-01-19T12:30:26.447Z,3.10
2023-01-19T12:36:40.116Z,3.10
2023-01-19T12:42:34.978Z,3.20
2023-01-19T12:48:33.382Z,3.20
2023-01-19T12:54:31.935Z,3.30
2023-01-19T13:00:44.209Z,3.30
2023-01-19T13:07:11.350Z,3.30
2023-01-19T13:13:18.879Z,3.30
2023-01-19T13:19:19.012Z,3.30
2023-01-19T13:25:23.340Z,3.30
2023-01-19T13:31:17.354Z,3.30
2023-01-19T13:37:17.412Z,3.40
2023-01-19T13:43:19.540Z,3.40
2023-01-19T13:49:19.302Z,3.40
2023-01-19T13:55:15.675Z,3.50
2023-01-19T14:01:22.396Z,3.60
2023-01-19T14:07:26.647Z,3.60
2023-01-19T14:13:22.246Z,3.60
2023-01-19T14:19:17.180Z,3.60
2023-01-19T14:25:30.444Z,3.60
2023-01-19T14:31:26.911Z,3.70
2023-01-19T14:37:27.437Z,3.70
2023-01-19T14:43:22.462Z,3.70
2023-01-19T14:49:22.203Z,3.70
2023-01-19T14:55:22.657Z,3.70
2023-01-19T15:01:16.245Z,3.70
2023-01-19T15:07:19.528Z,4.00
2023-01-19T15:13:29.558Z,4.00
2023-01-19T15:19:23.070Z,3.90
2023-01-19T15:25:17.887Z,3.70
2023-01-19T15:31:16.649Z,3.70
2023-01-19T15:37:10.171Z,3.60
2023-01-19T15:43:03.636Z,3.60
2023-01-19T15:48:57.996Z,3.50
2023-01-19T15:54:51.534Z,3.50
2023-01-19T16:00:45.137Z,3.50
2023-01-19T16:06:40.472Z,3.50
2023-01-19T16:12:34.016Z,3.40
2023-01-19T16:18:27.544Z,3.40
2023-01-19T16:24:22.391Z,3.40
2023-01-19T16:30:19.548Z,3.40
2023-01-19T16:36:21.155Z,3.30
2023-01-19T16:42:16.908Z,3.30
2023-01-19T16:48:10.307Z,3.30
2023-01-19T16:54:04.166Z,3.30
2023-01-19T16:59:59.036Z,3.30
2023-01-19T17:05:52.929Z,3.30
2023-01-19T17:11:47.150Z,3.20
2023-01-19T17:17:41.944Z,3.20
2023-01-19T17:23:36.576Z,3.20
2023-01-19T17:29:29.576Z,3.20
2023-01-19T17:35:24.655Z,3.20
2023-01-19T17:41:20.912Z,3.20
2023-01-19T17:47:14.337Z,3.10
2023-01-19T17:53:09.156Z,3.10
2023-01-19T17:59:02.578Z,3.00
2023-01-19T18:04:56.651Z,3.00
2023-01-19T18:10:56.702Z,3.00
2023-01-19T18:16:50.182Z,3.00
2023-01-19T18:22:43.619Z,2.90
2023-01-19T18:28:38.498Z,2.90
2023-01-19T18:34:32.312Z,2.90
2023-01-19T18:40:25.786Z,2.90
2023-01-19T18:46:21.558Z,2.90
2023-01-19T18:52:14.982Z,2.90
2023-01-19T18:58:09.186Z,2.90
2023-01-19T19:04:04.131Z,2.90
2023-01-19T19:09:57.619Z,2.90
2023-01-19T19:15:52.871Z,2.90
2023-01-19T19:21:47.788Z,2.90
2023-01-19T19:27:43.781Z,2.90
2023-01-19T19:33:38.178Z,2.80
2023-01-19T19:39:32.512Z,2.70
2023-01-19T19:45:26.033Z,2.70
2023-01-19T19:51:22.897Z,2.70
2023-01-19T19:57:17.631Z,2.60
2023-01-19T20:03:13.825Z,2.50
2023-01-19T20:09:09.318Z,2.50
2023-01-19T20:15:04.152Z,2.50
2023-01-19T20:20:57.789Z,2.50
2023-01-19T20:26:53.169Z,2.40
2023-01-19T20:32:47.917Z,2.40
2023-01-19T20:38:41.775Z,2.40
2023-01-19T20:44:35.286Z,2.30
2023-01-19T20:50:30.152Z,2.20
2023-01-19T20:56:23.783Z,2.20
2023-01-19T21:02:17.830Z,2.10
2023-01-19T21:08:14.075Z,2.20
2023-01-19T21:14:09.377Z,2.30
2023-01-19T21:20:03.358Z,2.30
2023-01-19T21:25:59.907Z,2.30
2023-01-19T21:31:53.388Z,2.30
2023-01-19T21:37:47.792Z,2.30
2023-01-19T21:43:43.552Z,2.30
2023-01-19T21:49:37.320Z,2.20
2023-01-19T21:55:30.830Z,2.20
2023-01-19T22:01:26.272Z,2.20
2023-01-19T22:07:19.809Z,2.20
2023-01-19T22:13:13.229Z,2.20
2023-01-19T22:19:08.576Z,2.10
2023-01-19T22:25:02.044Z,2.10
2023-01-19T22:30:55.151Z,2.00
2023-01-19T22:36:49.948Z,2.00
2023-01-19T22:42:46.990Z,2.00
2023-01-19T22:48:41.814Z,2.00
2023-01-19T22:54:36.798Z,1.90
2023-01-19T23:00:30.246Z,1.80
2023-01-19T23:06:24.973Z,1.80
2023-01-19T23:12:19.785Z,1.80
2023-01-19T23:18:12.809Z,1.80
2023-01-19T23:24:06.986Z,1.80
2023-01-19T23:30:01.340Z,1.80
2023-01-19T23:35:56.522Z,1.70
2023-01-19T23:41:49.919Z,1.70
2023-01-19T23:47:44.278Z,1.70
2023-01-19T23:53:38.623Z,1.70
2023-01-19T23:59:32.081Z,1.60
